Time;durP1;ratioP1;P1;durP2;ratioP2;P2;SDS_P1;SDS_P2;PMS_P1;PMS_P2;Temp;Humidity;BMP_temperature;BMP_pressure;BME280_temperature;BME280_humidity;BME280_pressure;Samples;Min_cycle;Max_cycle;Signal;HPM_P1;HPM_P2
2023/01/19 00:01:48;;;;;;;1.98;0.60;;;;;;;16.70;100.00;100538.72;2623897;47;20286;-58
2023/01/19 00:04:18;;;;;;;0.40;0.30;;;;;;;16.67;100.00;100530.31;2623945;54;20144;-53
2023/01/19 00:06:51;;;;;;;4.90;0.98;;;;;;;16.62;100.00;100535.94;2623810;54;20145;-55
2023/01/19 00:09:22;;;;;;;0.77;0.55;;;;;;;16.59;100.00;100538.84;2623979;47;20142;-60
2023/01/19 00:11:52;;;;;;;1.85;0.45;;;;;;;16.55;100.00;100540.03;2623875;54;20179;-58
2023/01/19 00:14:22;;;;;;;1.08;0.43;;;;;;;16.60;100.00;100542.28;2623999;54;20426;-56
2023/01/19 00:16:52;;;;;;;1.48;1.35;;;;;;;16.66;100.00;100536.50;2623769;54;20149;-54
2023/01/19 00:19:22;;;;;;;4.78;1.10;;;;;;;16.59;100.00;100535.38;2623888;54;20210;-54
2023/01/19 00:21:55;;;;;;;7.90;1.15;;;;;;;16.65;100.00;100561.06;2624158;39;20330;-57
2023/01/19 00:24:25;;;;;;;1.80;0.63;;;;;;;16.69;100.00;100544.13;2623897;54;20157;-56
2023/01/19 00:26:55;;;;;;;1.60;0.77;;;;;;;16.60;100.00;100558.00;2623788;54;20154;-54
2023/01/19 00:29:26;;;;;;;2.53;1.20;;;;;;;16.65;100.00;100567.09;2623818;54;20157;-58
2023/01/19 00:31:56;;;;;;;1.25;1.15;;;;;;;16.63;100.00;100570.84;2623749;54;20221;-56
2023/01/19 00:34:28;;;;;;;4.05;1.42;;;;;;;16.59;100.00;100561.59;2623820;54;20142;-52
2023/01/19 00:37:01;;;;;;;1.55;1.10;;;;;;;16.52;100.00;100549.97;2623721;54;20133;-55
2023/01/19 00:39:31;;;;;;;0.40;0.30;;;;;;;16.54;100.00;100548.03;2623895;54;20142;-57
2023/01/19 00:44:44;;;;;;;0.08;0.08;;;;;;;16.55;100.00;100554.91;2623790;54;20137;-55
2023/01/19 00:47:14;;;;;;;0.70;0.70;;;;;;;16.57;100.00;100563.53;2624029;54;20209;-56
2023/01/19 00:49:44;;;;;;;2.35;0.68;;;;;;;16.67;100.00;100564.38;2624666;47;20153;-56
2023/01/19 00:52:17;;;;;;;1.63;0.80;;;;;;;16.67;100.00;100574.84;2624570;54;20157;-55
2023/01/19 00:54:47;;;;;;;4.28;0.82;;;;;;;16.72;100.00;100572.66;2624543;54;20137;-58
2023/01/19 00:57:18;;;;;;;1.02;0.90;;;;;;;16.75;100.00;100575.00;2624543;47;20142;-54
2023/01/19 00:59:48;;;;;;;2.17;1.08;;;;;;;16.58;100.00;100554.69;2624549;54;20144;-56
2023/01/19 01:02:19;;;;;;;1.15;1.02;;;;;;;16.60;100.00;100548.38;2624506;51;20156;-52
2023/01/19 01:04:53;;;;;;;7.85;0.73;;;;;;;16.61;100.00;100543.97;2624576;54;20221;-56
2023/01/19 01:07:26;;;;;;;8.68;0.88;;;;;;;16.66;100.00;100558.28;2624913;39;20376;-59
2023/01/19 01:09:56;;;;;;;4.10;1.65;;;;;;;16.70;100.00;100537.88;2624572;54;20149;-59
2023/01/19 01:12:27;;;;;;;2.38;0.70;;;;;;;16.62;100.00;100517.59;2624603;46;20157;-58
2023/01/19 01:14:57;;;;;;;1.10;1.02;;;;;;;16.67;100.00;100522.44;2624086;54;20157;-56
2023/01/19 01:17:27;;;;;;;0.98;0.55;;;;;;;16.60;100.00;100516.09;2624495;54;20161;-63
2023/01/19 01:19:58;;;;;;;4.88;1.73;;;;;;;16.54;100.00;100517.41;2624749;39;20314;-55
2023/01/19 01:22:30;;;;;;;0.47;0.47;;;;;;;16.68;100.00;100521.50;2624523;54;20141;-57
2023/01/19 01:25:01;;;;;;;2.42;0.85;;;;;;;16.55;100.00;100528.72;2624616;54;20176;-57
2023/01/19 01:27:31;;;;;;;1.38;0.77;;;;;;;16.60;100.00;100523.97;2624825;39;20302;-58
2023/01/19 01:30:03;;;;;;;2.20;0.50;;;;;;;16.58;100.00;100523.25;2624499;54;20145;-54
2023/01/19 01:32:33;;;;;;;0.90;0.90;;;;;;;16.48;100.00;100530.25;2624400;47;20407;-52
2023/01/19 01:35:03;;;;;;;1.70;0.57;;;;;;;16.46;100.00;100525.13;2624475;54;20145;-54
2023/01/19 01:37:36;;;;;;;1.73;1.05;;;;;;;16.46;100.00;100537.38;2624362;54;20160;-55
2023/01/19 01:40:08;;;;;;;0.00;0.00;;;;;;;16.52;100.00;100547.34;2624430;54;20138;-55
2023/01/19 01:42:39;;;;;;;19.73;1.90;;;;;;;16.45;100.00;100543.59;2624386;54;20138;-58
2023/01/19 01:45:31;;;;;;;2.63;1.27;;;;;;;16.52;100.00;100536.88;2624426;54;20146;-56
2023/01/19 01:48:07;;;;;;;1.70;0.75;;;;;;;16.63;100.00;100523.69;2624457;47;20141;-57
2023/01/19 01:51:22;;;;;;;3.50;1.80;;;;;;;16.39;100.00;100519.59;2624340;47;20169;-55
2023/01/19 01:53:37;;;;;;;7.90;1.10;;;;;;;16.46;100.00;100504.16;2624340;47;20153;-54
2023/01/19 01:56:11;;;;;;;11.27;2.30;;;;;;;16.48;100.00;100523.22;2624362;47;20160;-55
2023/01/19 01:58:42;;;;;;;4.25;1.92;;;;;;;16.53;100.00;100517.56;2624343;47;20149;-58
2023/01/19 02:03:59;;;;;;;6.75;1.27;;;;;;;16.58;100.00;100513.59;2624420;54;20137;-55
2023/01/19 02:06:29;;;;;;;14.52;3.25;;;;;;;16.50;100.00;100533.53;2625080;54;20181;-55
2023/01/19 02:14:33;;;;;;;2.90;0.70;;;;;;;16.38;100.00;100512.69;2624461;54;20142;-57
2023/01/19 02:17:03;;;;;;;4.80;1.10;;;;;;;16.39;100.00;100514.38;2624316;51;20149;-58
2023/01/19 02:19:41;;;;;;;9.45;1.77;;;;;;;16.43;100.00;100516.72;2624294;54;20149;-56
2023/01/19 02:22:17;;;;;;;25.50;3.03;;;;;;;16.42;100.00;100528.13;2624167;47;20181;-54
2023/01/19 02:24:51;;;;;;;3.60;1.30;;;;;;;16.51;100.00;100535.19;2624774;39;20355;-57
2023/01/19 02:27:22;;;;;;;1.15;0.65;;;;;;;16.46;100.00;100548.69;2624169;54;20519;-58
2023/01/19 02:29:53;;;;;;;15.32;2.65;;;;;;;16.42;100.00;100549.91;2624278;54;20157;-57
2023/01/19 02:32:23;;;;;;;0.50;0.50;;;;;;;16.42;100.00;100549.09;2624254;54;20137;-54
2023/01/19 02:34:53;;;;;;;0.40;0.40;;;;;;;16.35;100.00;100556.66;2624233;51;20160;-56
2023/01/19 02:37:24;;;;;;;0.47;0.47;;;;;;;16.42;100.00;100556.94;2624251;54;20161;-54
2023/01/19 02:39:59;;;;;;;3.30;1.38;;;;;;;16.27;100.00;100548.63;2624142;47;20190;-57
2023/01/19 02:42:33;;;;;;;2.13;1.10;;;;;;;16.41;100.00;100556.09;2624622;39;20310;-55
2023/01/19 02:45:08;;;;;;;5.35;1.60;;;;;;;16.39;100.00;100568.53;2624156;54;20145;-56
2023/01/19 02:47:42;;;;;;;1.70;0.35;;;;;;;16.41;100.00;100565.78;2624115;54;20137;-54
2023/01/19 02:50:47;;;;;;;7.78;2.33;;;;;;;16.32;100.00;100576.09;2624267;54;20157;-57
2023/01/19 02:53:50;;;;;;;1.63;1.13;;;;;;;16.36;100.00;100555.69;2624175;47;20142;-59
2023/01/19 02:56:46;;;;;;;2.75;1.15;;;;;;;16.48;100.00;100569.53;2624110;51;20144;-58
2023/01/19 02:59:27;;;;;;;1.38;0.70;;;;;;;16.51;100.00;100564.00;2623561;54;20753;-56
2023/01/19 03:02:08;;;;;;;4.95;1.50;;;;;;;16.45;100.00;100541.00;2624469;39;20280;-54
2023/01/19 03:04:50;;;;;;;2.20;0.98;;;;;;;16.51;100.00;100562.22;2624029;47;20141;-59
2023/01/19 03:07:32;;;;;;;0.10;0.10;;;;;;;16.48;100.00;100585.22;2624054;47;20141;-57
2023/01/19 03:10:10;;;;;;;5.60;1.02;;;;;;;16.49;100.00;100581.66;2623940;47;20164;-53
2023/01/19 03:12:49;;;;;;;7.72;2.35;;;;;;;16.44;100.00;100568.97;2623963;54;20137;-58
2023/01/19 03:15:22;;;;;;;15.32;2.03;;;;;;;16.52;100.00;100589.25;2624097;54;20137;-56
2023/01/19 03:17:54;;;;;;;7.03;1.45;;;;;;;16.49;100.00;100587.69;2624051;47;20157;-60
2023/01/19 03:20:27;;;;;;;2.72;0.90;;;;;;;16.50;100.00;100591.16;2624370;39;20366;-56
2023/01/19 03:23:03;;;;;;;2.38;0.80;;;;;;;16.47;100.00;100588.81;2623845;54;20155;-56
2023/01/19 03:25:37;;;;;;;2.05;0.30;;;;;;;16.47;100.00;100596.66;2624260;39;20288;-58
2023/01/19 03:28:09;;;;;;;2.67;0.35;;;;;;;16.42;100.00;100596.22;2623988;54;20161;-55
2023/01/19 03:30:45;;;;;;;0.52;0.20;;;;;;;16.50;100.00;100591.16;2624032;47;20164;-55
2023/01/19 03:33:19;;;;;;;1.35;0.93;;;;;;;16.49;100.00;100597.38;2624033;54;20144;-56
2023/01/19 03:35:54;;;;;;;4.28;3.97;;;;;;;16.53;100.00;100580.44;2623942;54;20136;-57
2023/01/19 03:38:29;;;;;;;3.90;1.15;;;;;;;16.53;100.00;100583.06;2623953;47;20196;-54
2023/01/19 03:41:03;;;;;;;9.55;1.38;;;;;;;16.55;100.00;100591.59;2623994;54;20402;-57
2023/01/19 03:43:39;;;;;;;1.55;0.95;;;;;;;16.49;100.00;100581.66;2623950;47;20137;-59
2023/01/19 03:46:11;;;;;;;0.45;0.10;;;;;;;16.52;100.00;100586.63;2622237;47;20454;-57
2023/01/19 03:48:41;;;;;;;3.75;0.95;;;;;;;16.52;100.00;100570.91;2623737;54;20160;-58
2023/01/19 03:51:13;;;;;;;8.55;1.70;;;;;;;16.49;100.00;100576.44;2623937;54;20157;-54
2023/01/19 03:53:43;;;;;;;4.03;1.48;;;;;;;16.47;100.00;100571.31;2623706;54;20269;-53
2023/01/19 03:56:20;;;;;;;7.32;2.03;;;;;;;16.62;100.00;100570.00;2623823;47;20141;-57
2023/01/19 03:58:53;;;;;;;2.97;1.42;;;;;;;16.49;100.00;100566.75;2623699;54;20137;-57
2023/01/19 04:01:25;;;;;;;14.13;1.38;;;;;;;16.42;100.00;100562.19;2623769;54;20153;-56
2023/01/19 04:03:56;;;;;;;4.80;1.15;;;;;;;16.40;100.00;100564.94;2624036;39;20403;-55
2023/01/19 04:06:27;;;;;;;1.98;1.42;;;;;;;16.44;100.00;100571.56;2623767;54;20437;-52
2023/01/19 04:08:57;;;;;;;9.52;2.20;;;;;;;16.35;100.00;100569.75;2623755;47;20157;-54
2023/01/19 04:11:27;;;;;;;2.05;0.50;;;;;;;16.47;100.00;100566.06;2623565;54;20157;-57
2023/01/19 04:14:00;;;;;;;3.17;1.02;;;;;;;16.35;100.00;100556.66;2623736;54;20432;-57
2023/01/19 04:16:30;;;;;;;3.35;1.02;;;;;;;16.28;100.00;100550.28;2623645;54;20221;-52
2023/01/19 04:19:00;;;;;;;12.70;2.35;;;;;;;16.31;100.00;100561.34;2623636;54;20165;-54
2023/01/19 04:21:30;;;;;;;0.52;0.20;;;;;;;16.28;100.00;100552.91;2623978;54;20173;-55
2023/01/19 04:24:01;;;;;;;6.35;2.22;;;;;;;16.32;100.00;100555.16;2624480;54;20241;-53
2023/01/19 04:26:31;;;;;;;1.95;0.63;;;;;;;16.37;100.00;100554.72;2624479;54;20201;-56
2023/01/19 04:29:04;;;;;;;3.30;0.68;;;;;;;16.41;100.00;100552.69;2624520;47;20149;-59
2023/01/19 04:31:34;;;;;;;8.68;1.73;;;;;;;16.25;100.00;100542.69;2624429;54;20141;-55
2023/01/19 04:34:05;;;;;;;2.25;0.40;;;;;;;16.36;100.00;100555.69;2624433;54;20142;-51
2023/01/19 04:36:35;;;;;;;1.42;0.47;;;;;;;16.30;100.00;100577.16;2624743;46;20445;-59
2023/01/19 04:39:07;;;;;;;3.83;1.50;;;;;;;16.27;100.00;100565.16;2625124;47;20172;-58
2023/01/19 04:41:37;;;;;;;4.90;1.33;;;;;;;16.34;100.00;100582.00;2624693;47;20153;-61
2023/01/19 04:44:10;;;;;;;4.50;1.27;;;;;;;16.20;100.00;100586.78;2624350;54;20148;-58
2023/01/19 04:46:40;;;;;;;3.38;0.93;;;;;;;16.33;100.00;100593.44;2624445;54;20146;-56
2023/01/19 04:49:11;;;;;;;10.48;1.77;;;;;;;16.34;100.00;100568.91;2624096;54;20148;-55
2023/01/19 04:51:41;;;;;;;5.95;2.20;;;;;;;16.37;100.00;100592.22;2623956;47;20161;-57
2023/01/19 04:54:11;;;;;;;5.40;2.28;;;;;;;16.30;100.00;100604.19;2624218;54;20435;-58
2023/01/19 04:56:42;;;;;;;0.93;0.90;;;;;;;16.29;100.00;100583.34;2624175;54;20152;-61
2023/01/19 04:59:15;;;;;;;0.20;0.00;;;;;;;16.30;100.00;100619.88;2624590;54;20165;-56
2023/01/19 05:01:47;;;;;;;0.93;0.80;;;;;;;16.39;100.00;100626.97;2624264;54;20153;-55
2023/01/19 05:04:17;;;;;;;2.92;0.73;;;;;;;16.39;100.00;100623.50;2624360;54;20236;-61
2023/01/19 05:06:48;;;;;;;2.78;1.45;;;;;;;16.37;100.00;100630.66;2624529;54;20145;-58
2023/01/19 05:09:18;;;;;;;7.93;0.60;;;;;;;16.26;100.00;100618.50;2624340;54;20233;-53
2023/01/19 05:11:48;;;;;;;2.17;0.38;;;;;;;16.30;100.00;100624.28;2624529;54;20138;-57
2023/01/19 05:14:21;;;;;;;1.83;0.90;;;;;;;16.30;100.00;100617.28;2624240;54;20141;-59
2023/01/19 05:16:51;;;;;;;3.88;1.23;;;;;;;16.21;100.00;100604.94;2624596;54;20153;-53
2023/01/19 05:19:21;;;;;;;1.50;0.77;;;;;;;16.27;100.00;100603.63;2624494;54;20142;-52
2023/01/19 05:21:51;;;;;;;0.73;0.50;;;;;;;16.27;100.00;100603.63;2624246;54;20185;-53
2023/01/19 05:24:21;;;;;;;4.70;1.70;;;;;;;16.25;100.00;100610.75;2624429;47;20636;-55
2023/01/19 05:26:52;;;;;;;10.13;1.38;;;;;;;16.17;100.00;100618.47;2624469;54;20154;-55
2023/01/19 05:29:25;;;;;;;3.42;0.85;;;;;;;16.13;100.00;100615.25;2623660;54;20161;-63
2023/01/19 05:31:55;;;;;;;3.30;1.50;;;;;;;16.09;100.00;100599.97;2624946;39;20314;-59
2023/01/19 05:34:25;;;;;;;2.53;1.25;;;;;;;16.10;100.00;100610.28;2623978;54;20225;-60
2023/01/19 05:36:55;;;;;;;4.95;2.17;;;;;;;16.11;100.00;100600.63;2624645;39;20313;-58
2023/01/19 05:39:25;;;;;;;1.30;0.70;;;;;;;16.15;100.00;100638.69;2624465;54;20236;-59
2023/01/19 05:41:55;;;;;;;7.68;1.42;;;;;;;16.19;100.00;100640.09;2624237;54;20141;-58
2023/01/19 05:44:28;;;;;;;6.35;1.20;;;;;;;16.20;100.00;100647.00;2623256;39;20363;-54
2023/01/19 05:46:59;;;;;;;12.10;1.10;;;;;;;16.16;100.00;100656.06;2622987;54;20160;-55
2023/01/19 05:49:29;;;;;;;0.40;0.40;;;;;;;16.14;100.00;100666.66;2622966;54;20154;-57
2023/01/19 05:51:59;;;;;;;8.65;1.83;;;;;;;16.13;100.00;100672.03;2623860;54;20196;-54
2023/01/19 05:54:29;;;;;;;0.77;0.55;;;;;;;16.16;100.00;100680.44;2623514;51;20234;-58
2023/01/19 05:56:59;;;;;;;2.17;1.33;;;;;;;16.15;100.00;100664.84;2623649;47;20157;-57
2023/01/19 05:59:32;;;;;;;4.82;1.42;;;;;;;16.21;100.00;100680.03;2623439;47;20158;-57
2023/01/19 06:02:02;;;;;;;4.80;1.80;;;;;;;16.25;100.00;100682.28;2623502;54;20179;-55
2023/01/19 06:04:32;;;;;;;9.85;2.75;;;;;;;16.27;100.00;100664.66;2623843;47;20145;-58
2023/01/19 06:07:03;;;;;;;5.22;1.38;;;;;;;16.24;100.00;100666.72;2624324;47;20155;-54
2023/01/19 06:09:33;;;;;;;2.85;1.92;;;;;;;16.25;100.00;100661.34;2624574;39;20173;-56
2023/01/19 06:12:03;;;;;;;0.75;0.43;;;;;;;16.30;100.00;100674.03;2624242;54;20142;-53
2023/01/19 06:14:36;;;;;;;16.08;1.23;;;;;;;16.26;100.00;100681.31;2624051;54;20148;-57
2023/01/19 06:17:07;;;;;;;2.25;1.48;;;;;;;16.21;100.00;100656.47;2624257;54;20154;-56
2023/01/19 06:19:37;;;;;;;2.00;1.02;;;;;;;16.34;100.00;100684.13;2624084;47;20157;-54
2023/01/19 06:22:08;;;;;;;4.50;1.27;;;;;;;16.33;100.00;100689.47;2624088;54;20263;-55
2023/01/19 06:24:38;;;;;;;0.65;0.65;;;;;;;16.36;100.00;100697.09;2624230;47;20142;-56
2023/01/19 06:27:08;;;;;;;4.35;1.10;;;;;;;16.48;100.00;100700.47;2624140;47;20141;-55
2023/01/19 06:29:41;;;;;;;9.52;1.58;;;;;;;16.53;100.00;100708.78;2624189;47;20146;-58
2023/01/19 06:32:11;;;;;;;5.10;1.15;;;;;;;16.49;100.00;100704.75;2624234;48;20163;-55
2023/01/19 06:34:42;;;;;;;1.65;1.27;;;;;;;16.56;100.00;100698.88;2624067;54;20154;-54
2023/01/19 06:37:14;;;;;;;1.40;0.75;;;;;;;16.48;100.00;100705.72;2624178;54;20150;-58
2023/01/19 06:39:44;;;;;;;9.98;2.83;;;;;;;16.43;100.00;100711.34;2624126;49;20444;-59
2023/01/19 06:42:15;;;;;;;0.63;0.63;;;;;;;16.52;100.00;100726.28;2624164;54;20157;-56
2023/01/19 06:44:48;;;;;;;9.23;1.48;;;;;;;16.48;100.00;100706.53;2623889;47;20399;-55
2023/01/19 06:47:18;;;;;;;3.17;1.20;;;;;;;16.60;100.00;100723.03;2624006;54;20263;-59
2023/01/19 06:49:48;;;;;;;6.68;2.03;;;;;;;16.55;100.00;100722.56;2624211;54;20142;-59
2023/01/19 06:52:19;;;;;;;1.27;1.10;;;;;;;16.56;100.00;100735.53;2623982;54;20137;-54
2023/01/19 06:54:49;;;;;;;2.60;1.67;;;;;;;16.60;100.00;100741.38;2623426;54;20159;-59
2023/01/19 06:57:19;;;;;;;4.07;1.17;;;;;;;16.70;100.00;100735.22;2622699;51;20225;-56
2023/01/19 06:59:52;;;;;;;0.10;0.10;;;;;;;16.65;100.00;100744.44;2622731;47;20201;-58
2023/01/19 07:02:22;;;;;;;6.80;2.90;;;;;;;16.63;100.00;100741.94;2622791;47;20153;-55
2023/01/19 07:04:56;;;;;;;6.07;0.98;;;;;;;16.61;100.00;100749.09;2623183;47;20157;-54
2023/01/19 07:07:27;;;;;;;1.48;0.60;;;;;;;16.60;100.00;100721.25;2622898;47;20153;-58
2023/01/19 07:09:57;;;;;;;2.30;1.48;;;;;;;16.62;100.00;100740.28;2622848;47;20157;-56
2023/01/19 07:12:27;;;;;;;1.08;0.95;;;;;;;16.58;100.00;100735.41;2623998;54;20160;-54
2023/01/19 07:15:00;;;;;;;1.17;0.77;;;;;;;16.54;100.00;100726.97;2624266;39;20323;-54
2023/01/19 07:17:30;;;;;;;5.35;2.35;;;;;;;16.59;100.00;100739.72;2624080;54;20137;-57
2023/01/19 07:20:00;;;;;;;2.40;0.73;;;;;;;16.59;100.00;100742.34;2623941;54;20142;-57
2023/01/19 07:22:31;;;;;;;1.55;0.90;;;;;;;16.59;100.00;100737.09;2624037;47;20142;-55
2023/01/19 07:25:01;;;;;;;1.45;1.33;;;;;;;16.63;100.00;100743.72;2623699;47;20141;-55
2023/01/19 07:27:31;;;;;;;0.47;0.47;;;;;;;16.58;100.00;100754.59;2624025;54;20204;-55
2023/01/19 07:30:04;;;;;;;1.67;0.73;;;;;;;16.61;100.00;100771.84;2623900;54;20164;-52
2023/01/19 07:32:34;;;;;;;2.30;0.98;;;;;;;16.53;100.00;100763.78;2624084;47;20163;-55
2023/01/19 07:35:05;;;;;;;2.13;0.90;;;;;;;16.59;100.00;100771.16;2623779;51;20387;-56
2023/01/19 07:37:35;;;;;;;3.95;1.58;;;;;;;16.56;100.00;100759.13;2624329;39;20300;-60
2023/01/19 07:40:06;;;;;;;3.35;1.83;;;;;;;16.74;100.00;100775.09;2624270;39;20320;-52
2023/01/19 07:42:36;;;;;;;2.70;1.17;;;;;;;16.77;100.00;100757.31;2624012;47;20149;-57
2023/01/19 07:45:10;;;;;;;3.28;1.25;;;;;;;16.78;100.00;100776.50;2623788;47;20154;-52
2023/01/19 07:47:41;;;;;;;2.47;0.70;;;;;;;16.89;100.00;100768.53;2624397;39;20306;-57
2023/01/19 07:50:13;;;;;;;2.75;1.10;;;;;;;16.95;100.00;100759.34;2623870;47;20183;-58
2023/01/19 07:52:44;;;;;;;7.13;2.35;;;;;;;17.06;100.00;100765.31;2624479;39;20303;-58
2023/01/19 07:55:14;;;;;;;3.25;1.08;;;;;;;17.07;100.00;100764.34;2623791;54;20157;-59
2023/01/19 07:57:44;;;;;;;1.48;1.00;;;;;;;17.12;100.00;100767.41;2623801;47;20153;-58
2023/01/19 08:00:20;;;;;;;1.83;1.25;;;;;;;17.12;100.00;100767.41;2623903;54;20153;-54
2023/01/19 08:02:51;;;;;;;6.28;1.77;;;;;;;17.29;100.00;100771.22;2623854;54;20145;-58
2023/01/19 08:05:22;;;;;;;0.40;0.40;;;;;;;17.28;100.00;100778.25;2623770;47;20177;-59
2023/01/19 08:07:52;;;;;;;4.28;0.90;;;;;;;17.39;100.00;100776.47;2623965;54;20204;-57
2023/01/19 08:10:24;;;;;;;0.20;0.10;;;;;;;17.46;100.00;100780.19;2623955;39;20509;-56
2023/01/19 08:12:55;;;;;;;1.90;1.15;;;;;;;17.48;100.00;100784.38;2623989;54;20148;-55
2023/01/19 08:15:28;;;;;;;0.80;0.80;;;;;;;17.55;100.00;100792.53;2623730;54;20743;-58
2023/01/19 08:17:59;;;;;;;1.45;0.55;;;;;;;17.53;100.00;100800.50;2623872;51;20169;-56
2023/01/19 08:20:30;;;;;;;3.10;1.02;;;;;;;17.62;100.00;100815.50;2623600;47;20216;-54
2023/01/19 08:23:01;;;;;;;0.13;0.13;;;;;;;17.76;100.00;100811.66;2623782;54;20482;-59
2023/01/19 08:25:35;;;;;;;1.17;0.85;;;;;;;17.87;100.00;100811.53;2624003;47;20404;-59
2023/01/19 08:28:07;;;;;;;0.20;0.17;;;;;;;18.03;100.00;100811.84;2623861;47;20148;-56
2023/01/19 08:30:42;;;;;;;1.05;0.98;;;;;;;17.97;100.00;100801.91;2623987;54;20157;-56
2023/01/19 08:33:13;;;;;;;4.30;1.10;;;;;;;17.96;100.00;100804.66;2623811;54;20147;-57
2023/01/19 08:35:44;;;;;;;2.95;1.35;;;;;;;18.00;100.00;100801.63;2623784;54;20162;-57
2023/01/19 08:38:14;;;;;;;0.80;0.80;;;;;;;17.89;100.00;100787.78;2623775;54;20153;-56
2023/01/19 08:40:44;;;;;;;0.80;0.40;;;;;;;17.96;100.00;100784.47;2623717;51;20157;-57
2023/01/19 08:43:17;;;;;;;0.55;0.22;;;;;;;18.01;100.00;100790.16;2623738;53;20158;-59
2023/01/19 08:45:55;;;;;;;1.65;1.05;;;;;;;18.08;100.00;100793.88;2623706;54;20431;-56
2023/01/19 08:48:25;;;;;;;3.28;1.05;;;;;;;18.04;100.00;100794.28;2623723;54;20133;-58
2023/01/19 08:50:56;;;;;;;1.50;0.98;;;;;;;18.03;100.00;100771.63;2624076;39;20309;-56
2023/01/19 08:53:26;;;;;;;1.90;0.95;;;;;;;18.15;100.00;100789.72;2623687;54;20181;-57
2023/01/19 08:55:58;;;;;;;0.50;0.50;;;;;;;18.09;100.00;100798.19;2623638;54;20154;-55
2023/01/19 08:58:29;;;;;;;0.65;0.65;;;;;;;18.18;100.00;100768.44;2623686;47;20137;-54
2023/01/19 09:01:02;;;;;;;6.40;0.63;;;;;;;18.22;100.00;100772.44;2623467;54;20188;-56
2023/01/19 09:03:33;;;;;;;2.33;1.33;;;;;;;18.24;100.00;100767.06;2623660;54;20148;-60
2023/01/19 09:06:03;;;;;;;5.30;1.85;;;;;;;18.17;100.00;100755.47;2623523;54;20156;-54
2023/01/19 09:08:33;;;;;;;0.65;0.40;;;;;;;18.25;100.00;100748.50;2624024;54;20141;-58
2023/01/19 09:11:06;;;;;;;2.83;1.45;;;;;;;18.22;100.00;100767.19;2624437;47;20165;-56
2023/01/19 09:13:37;;;;;;;2.50;1.85;;;;;;;18.36;100.00;100744.91;2624552;54;20134;-53
2023/01/19 09:16:13;;;;;;;11.13;1.25;;;;;;;18.37;100.00;100749.22;2624530;46;20426;-54
2023/01/19 09:18:44;;;;;;;0.32;0.32;;;;;;;18.43;100.00;100737.28;2624652;46;20153;-57
2023/01/19 09:21:15;;;;;;;3.90;1.25;;;;;;;18.52;100.00;100732.06;2624204;47;20196;-57
